sensor_id;sensor_type;location;lat;lon;timestamp;P1;durP1;ratioP1;P2;durP2;ratioP2
60588;SDS011;46421;48.610;9.334;2023-09-12T00:01:46;8.27;;;4.57;;
60588;SDS011;46421;48.610;9.334;2023-09-12T00:04:11;9.87;;;4.30;;
60588;SDS011;46421;48.610;9.334;2023-09-12T00:06:36;10.77;;;4.80;;
60588;SDS011;46421;48.610;9.334;2023-09-12T00:09:01;7.50;;;4.57;;
60588;SDS011;46421;48.610;9.334;2023-09-12T00:11:30;11.32;;;5.38;;
60588;SDS011;46421;48.610;9.334;2023-09-12T00:13:55;9.40;;;4.53;;
60588;SDS011;46421;48.610;9.334;2023-09-12T00:16:21;10.27;;;4.37;;
60588;SDS011;46421;48.610;9.334;2023-09-12T00:18:46;13.40;;;5.10;;
60588;SDS011;46421;48.610;9.334;2023-09-12T00:21:11;11.00;;;4.40;;
60588;SDS011;46421;48.610;9.334;2023-09-12T00:23:36;8.80;;;5.00;;
60588;SDS011;46421;48.610;9.334;2023-09-12T00:26:01;11.20;;;4.83;;
60588;SDS011;46421;48.610;9.334;2023-09-12T00:28:27;7.93;;;4.53;;
60588;SDS011;46421;48.610;9.334;2023-09-12T00:30:52;10.20;;;4.83;;
60588;SDS011;46421;48.610;9.334;2023-09-12T00:33:17;8.35;;;4.78;;
60588;SDS011;46421;48.610;9.334;2023-09-12T00:35:43;11.50;;;5.38;;
60588;SDS011;46421;48.610;9.334;2023-09-12T00:38:08;11.02;;;4.70;;
60588;SDS011;46421;48.610;9.334;2023-09-12T00:40:34;9.88;;;4.38;;
60588;SDS011;46421;48.610;9.334;2023-09-12T00:42:59;11.90;;;4.63;;
60588;SDS011;46421;48.610;9.334;2023-09-12T00:45:24;10.82;;;5.03;;
60588;SDS011;46421;48.610;9.334;2023-09-12T00:47:50;9.87;;;5.07;;
60588;SDS011;46421;48.610;9.334;2023-09-12T00:50:15;7.32;;;4.47;;
60588;SDS011;46421;48.610;9.334;2023-09-12T00:52:41;9.85;;;4.50;;
60588;SDS011;46421;48.610;9.334;2023-09-12T00:55:07;9.83;;;4.50;;
60588;SDS011;46421;48.610;9.334;2023-09-12T00:57:32;10.57;;;4.80;;
60588;SDS011;46421;48.610;9.334;2023-09-12T00:59:58;9.15;;;4.22;;
60588;SDS011;46421;48.610;9.334;2023-09-12T01:02:24;9.23;;;4.07;;
60588;SDS011;46421;48.610;9.334;2023-09-12T01:04:49;8.55;;;4.35;;
60588;SDS011;46421;48.610;9.334;2023-09-12T01:07:14;11.57;;;4.40;;
60588;SDS011;46421;48.610;9.334;2023-09-12T01:09:40;9.23;;;4.47;;
60588;SDS011;46421;48.610;9.334;2023-09-12T01:12:05;8.43;;;4.80;;
60588;SDS011;46421;48.610;9.334;2023-09-12T01:14:30;9.13;;;4.82;;
60588;SDS011;46421;48.610;9.334;2023-09-12T01:16:56;11.57;;;4.87;;
60588;SDS011;46421;48.610;9.334;2023-09-12T01:19:22;9.60;;;4.70;;
60588;SDS011;46421;48.610;9.334;2023-09-12T01:22:03;10.32;;;4.75;;
60588;SDS011;46421;48.610;9.334;2023-09-12T01:27:16;8.80;;;4.57;;
60588;SDS011;46421;48.610;9.334;2023-09-12T01:29:43;9.63;;;4.72;;
60588;SDS011;46421;48.610;9.334;2023-09-12T01:34:34;8.63;;;4.82;;
60588;SDS011;46421;48.610;9.334;2023-09-12T01:36:59;8.37;;;4.80;;
60588;SDS011;46421;48.610;9.334;2023-09-12T01:39:25;9.83;;;5.53;;
60588;SDS011;46421;48.610;9.334;2023-09-12T01:41:50;11.07;;;5.30;;
60588;SDS011;46421;48.610;9.334;2023-09-12T01:44:17;8.77;;;4.43;;
60588;SDS011;46421;48.610;9.334;2023-09-12T01:46:42;8.75;;;4.65;;
60588;SDS011;46421;48.610;9.334;2023-09-12T01:49:08;8.70;;;4.78;;
60588;SDS011;46421;48.610;9.334;2023-09-12T01:51:34;10.30;;;4.43;;
60588;SDS011;46421;48.610;9.334;2023-09-12T01:54:00;8.68;;;4.85;;
60588;SDS011;46421;48.610;9.334;2023-09-12T01:56:25;11.75;;;5.13;;
60588;SDS011;46421;48.610;9.334;2023-09-12T01:58:51;9.90;;;4.90;;
60588;SDS011;46421;48.610;9.334;2023-09-12T02:01:16;9.57;;;4.83;;
60588;SDS011;46421;48.610;9.334;2023-09-12T02:03:41;7.53;;;4.33;;
60588;SDS011;46421;48.610;9.334;2023-09-12T02:06:06;9.23;;;4.17;;
60588;SDS011;46421;48.610;9.334;2023-09-12T02:08:31;9.23;;;4.87;;
60588;SDS011;46421;48.610;9.334;2023-09-12T02:10:57;9.93;;;4.03;;
60588;SDS011;46421;48.610;9.334;2023-09-12T02:13:22;9.33;;;4.60;;
60588;SDS011;46421;48.610;9.334;2023-09-12T02:15:47;8.37;;;4.23;;
60588;SDS011;46421;48.610;9.334;2023-09-12T02:18:12;12.67;;;4.67;;
60588;SDS011;46421;48.610;9.334;2023-09-12T02:20:38;8.63;;;4.33;;
60588;SDS011;46421;48.610;9.334;2023-09-12T02:23:03;7.55;;;4.18;;
60588;SDS011;46421;48.610;9.334;2023-09-12T02:25:29;7.40;;;4.20;;
60588;SDS011;46421;48.610;9.334;2023-09-12T02:27:54;10.77;;;5.23;;
60588;SDS011;46421;48.610;9.334;2023-09-12T02:30:19;9.83;;;4.43;;
60588;SDS011;46421;48.610;9.334;2023-09-12T02:32:44;10.53;;;4.10;;
60588;SDS011;46421;48.610;9.334;2023-09-12T02:35:09;11.00;;;4.43;;
60588;SDS011;46421;48.610;9.334;2023-09-12T02:37:35;8.97;;;5.17;;
60588;SDS011;46421;48.610;9.334;2023-09-12T02:40:00;10.93;;;4.37;;
60588;SDS011;46421;48.610;9.334;2023-09-12T02:42:25;7.30;;;4.33;;
60588;SDS011;46421;48.610;9.334;2023-09-12T02:44:50;10.40;;;4.73;;
60588;SDS011;46421;48.610;9.334;2023-09-12T02:47:17;12.75;;;4.70;;
60588;SDS011;46421;48.610;9.334;2023-09-12T02:49:42;8.70;;;4.70;;
60588;SDS011;46421;48.610;9.334;2023-09-12T02:52:08;8.00;;;4.47;;
60588;SDS011;46421;48.610;9.334;2023-09-12T02:54:33;8.80;;;4.33;;
60588;SDS011;46421;48.610;9.334;2023-09-12T02:56:58;9.50;;;4.57;;
60588;SDS011;46421;48.610;9.334;2023-09-12T02:59:23;9.47;;;4.50;;
60588;SDS011;46421;48.610;9.334;2023-09-12T03:01:48;8.33;;;4.23;;
60588;SDS011;46421;48.610;9.334;2023-09-12T03:04:14;8.00;;;4.20;;
60588;SDS011;46421;48.610;9.334;2023-09-12T03:06:39;9.60;;;4.53;;
60588;SDS011;46421;48.610;9.334;2023-09-12T03:09:04;14.37;;;5.27;;
60588;SDS011;46421;48.610;9.334;2023-09-12T03:11:29;8.03;;;3.93;;
60588;SDS011;46421;48.610;9.334;2023-09-12T03:13:54;7.77;;;4.30;;
60588;SDS011;46421;48.610;9.334;2023-09-12T03:16:20;8.63;;;4.40;;
60588;SDS011;46421;48.610;9.334;2023-09-12T03:18:45;11.20;;;4.45;;
60588;SDS011;46421;48.610;9.334;2023-09-12T03:21:10;10.03;;;4.20;;
60588;SDS011;46421;48.610;9.334;2023-09-12T03:23:36;8.80;;;4.47;;
60588;SDS011;46421;48.610;9.334;2023-09-12T03:26:02;8.80;;;4.50;;
60588;SDS011;46421;48.610;9.334;2023-09-12T03:28:27;13.15;;;4.93;;
60588;SDS011;46421;48.610;9.334;2023-09-12T03:30:52;8.60;;;4.40;;
60588;SDS011;46421;48.610;9.334;2023-09-12T03:33:27;10.90;;;4.28;;
60588;SDS011;46421;48.610;9.334;2023-09-12T03:35:53;10.10;;;4.43;;
60588;SDS011;46421;48.610;9.334;2023-09-12T03:38:19;8.05;;;4.47;;
60588;SDS011;46421;48.610;9.334;2023-09-12T03:40:44;10.03;;;4.67;;
60588;SDS011;46421;48.610;9.334;2023-09-12T03:43:09;11.07;;;4.77;;
60588;SDS011;46421;48.610;9.334;2023-09-12T03:45:35;9.37;;;3.90;;
60588;SDS011;46421;48.610;9.334;2023-09-12T03:48:00;9.03;;;4.73;;
60588;SDS011;46421;48.610;9.334;2023-09-12T03:50:25;7.10;;;3.57;;
60588;SDS011;46421;48.610;9.334;2023-09-12T03:52:50;8.63;;;4.33;;
60588;SDS011;46421;48.610;9.334;2023-09-12T03:55:15;9.60;;;4.10;;
60588;SDS011;46421;48.610;9.334;2023-09-12T03:57:41;7.97;;;5.05;;
60588;SDS011;46421;48.610;9.334;2023-09-12T04:00:06;10.70;;;4.43;;
60588;SDS011;46421;48.610;9.334;2023-09-12T04:02:32;8.32;;;4.70;;
60588;SDS011;46421;48.610;9.334;2023-09-12T04:04:57;9.33;;;4.80;;
60588;SDS011;46421;48.610;9.334;2023-09-12T04:07:24;8.90;;;4.38;;
60588;SDS011;46421;48.610;9.334;2023-09-12T04:09:49;9.90;;;4.13;;
60588;SDS011;46421;48.610;9.334;2023-09-12T04:12:14;8.80;;;4.90;;
60588;SDS011;46421;48.610;9.334;2023-09-12T04:14:39;10.43;;;4.57;;
60588;SDS011;46421;48.610;9.334;2023-09-12T04:17:05;10.60;;;4.70;;
60588;SDS011;46421;48.610;9.334;2023-09-12T04:19:30;7.60;;;3.97;;
60588;SDS011;46421;48.610;9.334;2023-09-12T04:21:56;8.45;;;4.07;;
60588;SDS011;46421;48.610;9.334;2023-09-12T04:24:21;9.47;;;4.20;;
60588;SDS011;46421;48.610;9.334;2023-09-12T04:26:46;10.00;;;4.20;;
60588;SDS011;46421;48.610;9.334;2023-09-12T04:29:12;7.00;;;4.03;;
60588;SDS011;46421;48.610;9.334;2023-09-12T04:31:37;10.00;;;4.17;;
60588;SDS011;46421;48.610;9.334;2023-09-12T04:34:03;8.13;;;3.70;;
60588;SDS011;46421;48.610;9.334;2023-09-12T04:36:28;10.33;;;5.30;;
60588;SDS011;46421;48.610;9.334;2023-09-12T04:38:53;9.60;;;4.80;;
60588;SDS011;46421;48.610;9.334;2023-09-12T04:41:19;11.45;;;4.93;;
60588;SDS011;46421;48.610;9.334;2023-09-12T04:43:44;9.27;;;4.20;;
60588;SDS011;46421;48.610;9.334;2023-09-12T04:46:10;10.25;;;4.63;;
60588;SDS011;46421;48.610;9.334;2023-09-12T04:48:35;7.30;;;3.85;;
60588;SDS011;46421;48.610;9.334;2023-09-12T04:51:00;8.70;;;4.80;;
60588;SDS011;46421;48.610;9.334;2023-09-12T04:53:25;10.27;;;4.43;;
60588;SDS011;46421;48.610;9.334;2023-09-12T04:55:53;8.90;;;4.00;;
60588;SDS011;46421;48.610;9.334;2023-09-12T04:58:19;9.32;;;3.70;;
60588;SDS011;46421;48.610;9.334;2023-09-12T05:00:45;9.67;;;4.93;;
60588;SDS011;46421;48.610;9.334;2023-09-12T05:03:10;8.45;;;4.57;;
60588;SDS011;46421;48.610;9.334;2023-09-12T05:05:35;8.93;;;4.33;;
60588;SDS011;46421;48.610;9.334;2023-09-12T05:08:01;7.35;;;4.45;;
60588;SDS011;46421;48.610;9.334;2023-09-12T05:10:27;9.35;;;4.50;;
60588;SDS011;46421;48.610;9.334;2023-09-12T05:12:52;9.53;;;4.13;;
60588;SDS011;46421;48.610;9.334;2023-09-12T05:15:18;8.65;;;4.60;;
60588;SDS011;46421;48.610;9.334;2023-09-12T05:17:43;9.73;;;4.80;;
60588;SDS011;46421;48.610;9.334;2023-09-12T05:20:08;8.48;;;4.15;;
60588;SDS011;46421;48.610;9.334;2023-09-12T05:22:34;9.27;;;4.75;;
60588;SDS011;46421;48.610;9.334;2023-09-12T05:24:59;8.83;;;4.30;;
60588;SDS011;46421;48.610;9.334;2023-09-12T05:27:24;8.73;;;4.00;;
60588;SDS011;46421;48.610;9.334;2023-09-12T05:29:49;9.97;;;4.83;;
60588;SDS011;46421;48.610;9.334;2023-09-12T05:32:15;8.20;;;4.43;;
60588;SDS011;46421;48.610;9.334;2023-09-12T05:34:41;10.35;;;4.07;;
60588;SDS011;46421;48.610;9.334;2023-09-12T05:37:06;9.30;;;4.50;;
60588;SDS011;46421;48.610;9.334;2023-09-12T05:39:32;8.57;;;4.30;;
60588;SDS011;46421;48.610;9.334;2023-09-12T05:41:57;11.00;;;4.77;;
60588;SDS011;46421;48.610;9.334;2023-09-12T05:44:22;9.20;;;4.40;;
60588;SDS011;46421;48.610;9.334;2023-09-12T05:46:47;7.13;;;3.90;;
60588;SDS011;46421;48.610;9.334;2023-09-12T05:49:13;9.00;;;3.95;;
60588;SDS011;46421;48.610;9.334;2023-09-12T05:51:38;7.40;;;3.97;;
60588;SDS011;46421;48.610;9.334;2023-09-12T05:54:04;8.70;;;4.87;;
60588;SDS011;46421;48.610;9.334;2023-09-12T05:56:29;8.05;;;4.05;;
60588;SDS011;46421;48.610;9.334;2023-09-12T05:58:54;8.13;;;4.27;;
60588;SDS011;46421;48.610;9.334;2023-09-12T06:01:19;9.33;;;4.10;;
60588;SDS011;46421;48.610;9.334;2023-09-12T06:03:45;9.43;;;4.20;;
60588;SDS011;46421;48.610;9.334;2023-09-12T06:06:10;8.17;;;4.07;;
60588;SDS011;46421;48.610;9.334;2023-09-12T06:08:35;9.23;;;4.10;;
60588;SDS011;46421;48.610;9.334;2023-09-12T06:11:00;10.53;;;4.60;;
60588;SDS011;46421;48.610;9.334;2023-09-12T06:13:25;9.80;;;5.07;;
60588;SDS011;46421;48.610;9.334;2023-09-12T06:15:51;8.43;;;5.00;;
60588;SDS011;46421;48.610;9.334;2023-09-12T06:18:16;10.80;;;5.03;;
60588;SDS011;46421;48.610;9.334;2023-09-12T06:20:41;9.13;;;5.27;;
60588;SDS011;46421;48.610;9.334;2023-09-12T06:23:07;9.85;;;5.13;;
60588;SDS011;46421;48.610;9.334;2023-09-12T06:25:32;11.43;;;5.50;;
60588;SDS011;46421;48.610;9.334;2023-09-12T06:27:58;8.65;;;4.88;;
60588;SDS011;46421;48.610;9.334;2023-09-12T06:30:23;9.27;;;5.17;;
60588;SDS011;46421;48.610;9.334;2023-09-12T06:32:48;8.50;;;5.20;;
60588;SDS011;46421;48.610;9.334;2023-09-12T06:35:13;10.13;;;5.33;;
60588;SDS011;46421;48.610;9.334;2023-09-12T06:37:38;9.53;;;5.00;;
60588;SDS011;46421;48.610;9.334;2023-09-12T06:40:04;12.18;;;5.63;;
60588;SDS011;46421;48.610;9.334;2023-09-12T06:42:30;11.18;;;5.35;;
60588;SDS011;46421;48.610;9.334;2023-09-12T06:44:55;10.43;;;6.00;;
60588;SDS011;46421;48.610;9.334;2023-09-12T06:47:20;10.07;;;5.83;;
60588;SDS011;46421;48.610;9.334;2023-09-12T06:49:45;12.00;;;5.53;;
60588;SDS011;46421;48.610;9.334;2023-09-12T06:52:10;13.00;;;5.73;;
60588;SDS011;46421;48.610;9.334;2023-09-12T06:54:36;10.60;;;6.23;;
60588;SDS011;46421;48.610;9.334;2023-09-12T06:57:01;10.63;;;5.63;;
60588;SDS011;46421;48.610;9.334;2023-09-12T06:59:26;9.63;;;5.75;;
60588;SDS011;46421;48.610;9.334;2023-09-12T07:01:52;9.57;;;5.80;;
60588;SDS011;46421;48.610;9.334;2023-09-12T07:04:17;9.73;;;5.43;;
60588;SDS011;46421;48.610;9.334;2023-09-12T07:06:42;11.50;;;5.83;;
60588;SDS011;46421;48.610;9.334;2023-09-12T07:09:07;11.15;;;5.70;;
60588;SDS011;46421;48.610;9.334;2023-09-12T07:11:33;9.70;;;5.68;;
60588;SDS011;46421;48.610;9.334;2023-09-12T07:13:59;10.87;;;5.60;;
60588;SDS011;46421;48.610;9.334;2023-09-12T07:16:24;10.20;;;5.70;;
60588;SDS011;46421;48.610;9.334;2023-09-12T07:18:49;10.27;;;5.80;;
60588;SDS011;46421;48.610;9.334;2023-09-12T07:21:15;11.98;;;5.50;;
60588;SDS011;46421;48.610;9.334;2023-09-12T07:23:40;10.40;;;5.57;;
60588;SDS011;46421;48.610;9.334;2023-09-12T07:26:06;11.63;;;6.05;;
60588;SDS011;46421;48.610;9.334;2023-09-12T07:28:36;10.10;;;5.70;;
60588;SDS011;46421;48.610;9.334;2023-09-12T07:31:02;11.20;;;5.90;;
60588;SDS011;46421;48.610;9.334;2023-09-12T07:33:27;11.27;;;5.77;;
60588;SDS011;46421;48.610;9.334;2023-09-12T07:35:52;12.60;;;5.93;;
60588;SDS011;46421;48.610;9.334;2023-09-12T07:38:18;13.75;;;5.70;;
60588;SDS011;46421;48.610;9.334;2023-09-12T07:40:44;13.45;;;7.13;;
60588;SDS011;46421;48.610;9.334;2023-09-12T07:43:10;8.83;;;5.90;;
60588;SDS011;46421;48.610;9.334;2023-09-12T07:45:35;10.88;;;6.05;;
60588;SDS011;46421;48.610;9.334;2023-09-12T07:48:05;12.02;;;5.95;;
60588;SDS011;46421;48.610;9.334;2023-09-12T07:50:31;11.90;;;6.10;;
60588;SDS011;46421;48.610;9.334;2023-09-12T07:52:56;12.27;;;6.07;;
60588;SDS011;46421;48.610;9.334;2023-09-12T07:55:21;9.03;;;5.83;;
60588;SDS011;46421;48.610;9.334;2023-09-12T07:57:46;9.10;;;5.55;;
60588;SDS011;46421;48.610;9.334;2023-09-12T08:00:12;10.33;;;5.60;;
60588;SDS011;46421;48.610;9.334;2023-09-12T08:02:37;8.93;;;5.57;;
60588;SDS011;46421;48.610;9.334;2023-09-12T08:05:02;10.03;;;5.97;;
60588;SDS011;46421;48.610;9.334;2023-09-12T08:07:28;11.43;;;6.60;;
60588;SDS011;46421;48.610;9.334;2023-09-12T08:09:54;9.70;;;6.30;;
60588;SDS011;46421;48.610;9.334;2023-09-12T08:12:20;11.48;;;6.60;;
60588;SDS011;46421;48.610;9.334;2023-09-12T08:14:46;9.15;;;6.20;;
60588;SDS011;46421;48.610;9.334;2023-09-12T08:17:11;10.90;;;6.47;;
60588;SDS011;46421;48.610;9.334;2023-09-12T08:19:37;10.23;;;6.82;;
60588;SDS011;46421;48.610;9.334;2023-09-12T08:24:27;8.07;;;6.10;;
60588;SDS011;46421;48.610;9.334;2023-09-12T08:26:52;10.50;;;6.30;;
60588;SDS011;46421;48.610;9.334;2023-09-12T08:31:43;9.32;;;5.80;;
60588;SDS011;46421;48.610;9.334;2023-09-12T08:34:09;10.02;;;6.35;;
60588;SDS011;46421;48.610;9.334;2023-09-12T08:36:35;10.03;;;6.43;;
60588;SDS011;46421;48.610;9.334;2023-09-12T08:39:01;9.00;;;6.50;;
60588;SDS011;46421;48.610;9.334;2023-09-12T08:43:51;7.93;;;6.47;;
60588;SDS011;46421;48.610;9.334;2023-09-12T08:48:42;10.25;;;6.40;;
60588;SDS011;46421;48.610;9.334;2023-09-12T08:53:33;8.98;;;6.78;;
60588;SDS011;46421;48.610;9.334;2023-09-12T08:56:01;8.73;;;6.53;;
60588;SDS011;46421;48.610;9.334;2023-09-12T08:58:28;9.32;;;6.88;;
60588;SDS011;46421;48.610;9.334;2023-09-12T09:00:54;9.70;;;7.40;;
60588;SDS011;46421;48.610;9.334;2023-09-12T09:03:20;10.00;;;7.97;;
60588;SDS011;46421;48.610;9.334;2023-09-12T09:05:46;7.80;;;7.00;;
60588;SDS011;46421;48.610;9.334;2023-09-12T09:08:13;10.98;;;7.35;;
60588;SDS011;46421;48.610;9.334;2023-09-12T09:10:39;10.20;;;7.50;;
60588;SDS011;46421;48.610;9.334;2023-09-12T09:13:04;8.33;;;7.27;;
60588;SDS011;46421;48.610;9.334;2023-09-12T09:15:31;8.38;;;7.40;;
60588;SDS011;46421;48.610;9.334;2023-09-12T09:17:57;9.38;;;8.05;;
60588;SDS011;46421;48.610;9.334;2023-09-12T09:20:29;10.07;;;7.53;;
60588;SDS011;46421;48.610;9.334;2023-09-12T09:22:58;8.55;;;7.05;;
60588;SDS011;46421;48.610;9.334;2023-09-12T09:25:24;13.02;;;6.85;;
60588;SDS011;46421;48.610;9.334;2023-09-12T09:27:49;9.10;;;7.40;;
60588;SDS011;46421;48.610;9.334;2023-09-12T09:30:14;11.07;;;7.10;;
60588;SDS011;46421;48.610;9.334;2023-09-12T09:32:39;10.13;;;7.97;;
60588;SDS011;46421;48.610;9.334;2023-09-12T09:35:04;10.23;;;8.47;;
60588;SDS011;46421;48.610;9.334;2023-09-12T09:37:30;8.35;;;7.22;;
60588;SDS011;46421;48.610;9.334;2023-09-12T09:39:55;10.63;;;8.07;;
60588;SDS011;46421;48.610;9.334;2023-09-12T09:42:20;10.57;;;8.77;;
60588;SDS011;46421;48.610;9.334;2023-09-12T09:44:46;12.63;;;9.40;;
60588;SDS011;46421;48.610;9.334;2023-09-12T09:47:12;10.27;;;8.02;;
60588;SDS011;46421;48.610;9.334;2023-09-12T09:49:37;11.83;;;8.53;;
60588;SDS011;46421;48.610;9.334;2023-09-12T09:52:03;11.00;;;8.13;;
60588;SDS011;46421;48.610;9.334;2023-09-12T09:54:29;14.05;;;8.77;;
60588;SDS011;46421;48.610;9.334;2023-09-12T09:56:55;10.10;;;8.10;;
60588;SDS011;46421;48.610;9.334;2023-09-12T09:59:21;11.27;;;8.07;;
60588;SDS011;46421;48.610;9.334;2023-09-12T10:01:46;10.43;;;8.00;;
60588;SDS011;46421;48.610;9.334;2023-09-12T10:04:13;9.75;;;8.40;;
60588;SDS011;46421;48.610;9.334;2023-09-12T10:06:39;10.27;;;7.60;;
60588;SDS011;46421;48.610;9.334;2023-09-12T10:09:09;10.60;;;8.57;;
60588;SDS011;46421;48.610;9.334;2023-09-12T10:11:35;9.40;;;7.45;;
60588;SDS011;46421;48.610;9.334;2023-09-12T10:14:02;11.47;;;8.60;;
60588;SDS011;46421;48.610;9.334;2023-09-12T10:16:35;9.77;;;8.68;;
60588;SDS011;46421;48.610;9.334;2023-09-12T10:21:30;9.95;;;8.95;;
60588;SDS011;46421;48.610;9.334;2023-09-12T10:23:57;11.55;;;9.88;;
60588;SDS011;46421;48.610;9.334;2023-09-12T10:26:23;10.88;;;9.70;;
60588;SDS011;46421;48.610;9.334;2023-09-12T10:28:48;8.85;;;8.02;;
60588;SDS011;46421;48.610;9.334;2023-09-12T10:31:15;10.75;;;9.65;;
60588;SDS011;46421;48.610;9.334;2023-09-12T10:33:41;11.63;;;10.68;;
60588;SDS011;46421;48.610;9.334;2023-09-12T10:36:08;11.02;;;10.13;;
60588;SDS011;46421;48.610;9.334;2023-09-12T10:38:34;11.60;;;10.38;;
60588;SDS011;46421;48.610;9.334;2023-09-12T10:41:01;8.82;;;7.60;;
60588;SDS011;46421;48.610;9.334;2023-09-12T10:43:28;9.90;;;8.63;;
60588;SDS011;46421;48.610;9.334;2023-09-12T10:45:54;9.45;;;8.43;;
60588;SDS011;46421;48.610;9.334;2023-09-12T10:48:19;8.53;;;7.10;;
60588;SDS011;46421;48.610;9.334;2023-09-12T10:50:45;9.80;;;7.83;;
60588;SDS011;46421;48.610;9.334;2023-09-12T10:53:11;8.75;;;7.85;;
60588;SDS011;46421;48.610;9.334;2023-09-12T10:55:36;8.90;;;6.93;;
60588;SDS011;46421;48.610;9.334;2023-09-12T10:58:05;9.37;;;8.37;;
60588;SDS011;46421;48.610;9.334;2023-09-12T11:00:31;8.77;;;7.97;;
60588;SDS011;46421;48.610;9.334;2023-09-12T11:05:52;9.80;;;8.90;;
60588;SDS011;46421;48.610;9.334;2023-09-12T11:08:21;9.13;;;8.23;;
60588;SDS011;46421;48.610;9.334;2023-09-12T11:11:16;9.32;;;8.52;;
60588;SDS011;46421;48.610;9.334;2023-09-12T11:13:41;11.13;;;10.10;;
60588;SDS011;46421;48.610;9.334;2023-09-12T11:16:10;9.43;;;8.47;;
60588;SDS011;46421;48.610;9.334;2023-09-12T11:18:55;10.07;;;9.18;;
60588;SDS011;46421;48.610;9.334;2023-09-12T11:21:31;10.20;;;8.48;;
60588;SDS011;46421;48.610;9.334;2023-09-12T11:23:56;10.32;;;9.35;;
60588;SDS011;46421;48.610;9.334;2023-09-12T11:26:22;9.90;;;8.90;;
60588;SDS011;46421;48.610;9.334;2023-09-12T11:28:47;9.30;;;8.43;;
60588;SDS011;46421;48.610;9.334;2023-09-12T11:31:13;8.30;;;7.40;;
60588;SDS011;46421;48.610;9.334;2023-09-12T11:33:49;9.10;;;8.23;;
60588;SDS011;46421;48.610;9.334;2023-09-12T11:36:14;8.55;;;7.75;;
60588;SDS011;46421;48.610;9.334;2023-09-12T11:38:40;8.88;;;6.75;;
60588;SDS011;46421;48.610;9.334;2023-09-12T11:41:05;10.10;;;9.13;;
60588;SDS011;46421;48.610;9.334;2023-09-12T11:43:30;8.90;;;8.10;;
60588;SDS011;46421;48.610;9.334;2023-09-12T11:45:57;8.95;;;8.05;;
60588;SDS011;46421;48.610;9.334;2023-09-12T11:48:22;8.85;;;7.07;;
60588;SDS011;46421;48.610;9.334;2023-09-12T11:50:54;8.80;;;7.93;;
60588;SDS011;46421;48.610;9.334;2023-09-12T11:53:23;8.93;;;8.10;;
60588;SDS011;46421;48.610;9.334;2023-09-12T11:55:51;8.23;;;7.43;;
60588;SDS011;46421;48.610;9.334;2023-09-12T11:58:17;9.30;;;8.40;;
60588;SDS011;46421;48.610;9.334;2023-09-12T12:00:47;8.35;;;7.55;;
60588;SDS011;46421;48.610;9.334;2023-09-12T12:03:16;8.38;;;7.57;;
60588;SDS011;46421;48.610;9.334;2023-09-12T12:05:42;8.85;;;6.57;;
60588;SDS011;46421;48.610;9.334;2023-09-12T12:08:07;8.30;;;7.47;;
60588;SDS011;46421;48.610;9.334;2023-09-12T12:10:33;8.93;;;8.13;;
60588;SDS011;46421;48.610;9.334;2023-09-12T12:12:59;8.90;;;6.60;;
60588;SDS011;46421;48.610;9.334;2023-09-12T12:15:24;8.40;;;7.60;;
60588;SDS011;46421;48.610;9.334;2023-09-12T12:17:53;10.23;;;9.32;;
60588;SDS011;46421;48.610;9.334;2023-09-12T12:20:19;7.95;;;7.25;;
60588;SDS011;46421;48.610;9.334;2023-09-12T12:22:44;8.57;;;6.47;;
60588;SDS011;46421;48.610;9.334;2023-09-12T12:25:10;8.27;;;7.40;;
60588;SDS011;46421;48.610;9.334;2023-09-12T12:27:38;8.35;;;7.32;;
60588;SDS011;46421;48.610;9.334;2023-09-12T12:30:07;9.48;;;7.13;;
60588;SDS011;46421;48.610;9.334;2023-09-12T12:32:32;9.25;;;7.40;;
60588;SDS011;46421;48.610;9.334;2023-09-12T12:34:57;8.23;;;6.85;;
60588;SDS011;46421;48.610;9.334;2023-09-12T12:37:27;8.87;;;8.07;;
60588;SDS011;46421;48.610;9.334;2023-09-12T12:39:55;8.85;;;8.15;;
60588;SDS011;46421;48.610;9.334;2023-09-12T12:42:20;8.03;;;7.23;;
60588;SDS011;46421;48.610;9.334;2023-09-12T12:44:51;7.07;;;6.35;;
60588;SDS011;46421;48.610;9.334;2023-09-12T12:47:17;9.27;;;8.43;;
60588;SDS011;46421;48.610;9.334;2023-09-12T12:49:42;8.40;;;7.70;;
60588;SDS011;46421;48.610;9.334;2023-09-12T12:52:11;8.73;;;7.75;;
60588;SDS011;46421;48.610;9.334;2023-09-12T12:54:37;7.78;;;7.03;;
60588;SDS011;46421;48.610;9.334;2023-09-12T12:57:02;7.30;;;6.30;;
60588;SDS011;46421;48.610;9.334;2023-09-12T12:59:27;8.02;;;7.22;;
60588;SDS011;46421;48.610;9.334;2023-09-12T13:01:54;8.52;;;7.72;;
60588;SDS011;46421;48.610;9.334;2023-09-12T13:04:20;9.87;;;6.67;;
60588;SDS011;46421;48.610;9.334;2023-09-12T13:06:45;8.45;;;7.25;;
60588;SDS011;46421;48.610;9.334;2023-09-12T13:09:11;8.90;;;8.10;;
60588;SDS011;46421;48.610;9.334;2023-09-12T13:11:36;8.07;;;7.38;;
60588;SDS011;46421;48.610;9.334;2023-09-12T13:14:02;8.23;;;7.47;;
60588;SDS011;46421;48.610;9.334;2023-09-12T13:16:33;8.32;;;7.35;;
60588;SDS011;46421;48.610;9.334;2023-09-12T13:18:59;7.10;;;6.35;;
60588;SDS011;46421;48.610;9.334;2023-09-12T13:21:24;8.57;;;7.23;;
60588;SDS011;46421;48.610;9.334;2023-09-12T13:23:49;8.87;;;7.80;;
60588;SDS011;46421;48.610;9.334;2023-09-12T13:26:15;8.43;;;7.27;;
60588;SDS011;46421;48.610;9.334;2023-09-12T13:28:40;7.25;;;6.25;;
60588;SDS011;46421;48.610;9.334;2023-09-12T13:31:05;7.93;;;6.85;;
60588;SDS011;46421;48.610;9.334;2023-09-12T13:33:30;9.27;;;7.03;;
60588;SDS011;46421;48.610;9.334;2023-09-12T13:35:56;7.15;;;6.45;;
60588;SDS011;46421;48.610;9.334;2023-09-12T13:38:21;7.93;;;6.77;;
60588;SDS011;46421;48.610;9.334;2023-09-12T13:40:48;8.07;;;7.28;;
60588;SDS011;46421;48.610;9.334;2023-09-12T13:43:13;7.03;;;6.32;;
60588;SDS011;46421;48.610;9.334;2023-09-12T13:45:39;8.73;;;6.43;;
60588;SDS011;46421;48.610;9.334;2023-09-12T13:48:05;7.87;;;7.03;;
60588;SDS011;46421;48.610;9.334;2023-09-12T13:50:31;7.63;;;6.50;;
60588;SDS011;46421;48.610;9.334;2023-09-12T13:53:00;8.27;;;7.47;;
60588;SDS011;46421;48.610;9.334;2023-09-12T13:55:25;6.85;;;6.13;;
60588;SDS011;46421;48.610;9.334;2023-09-12T13:57:50;7.22;;;5.90;;
60588;SDS011;46421;48.610;9.334;2023-09-12T14:00:16;7.07;;;5.63;;
60588;SDS011;46421;48.610;9.334;2023-09-12T14:02:41;6.57;;;5.30;;
60588;SDS011;46421;48.610;9.334;2023-09-12T14:05:06;7.53;;;5.23;;
60588;SDS011;46421;48.610;9.334;2023-09-12T14:07:31;6.40;;;5.03;;
60588;SDS011;46421;48.610;9.334;2023-09-12T14:12:22;7.40;;;5.03;;
60588;SDS011;46421;48.610;9.334;2023-09-12T14:14:48;6.78;;;5.05;;
60588;SDS011;46421;48.610;9.334;2023-09-12T14:17:13;9.93;;;5.57;;
60588;SDS011;46421;48.610;9.334;2023-09-12T14:22:03;7.23;;;4.97;;
60588;SDS011;46421;48.610;9.334;2023-09-12T14:26:54;8.45;;;5.28;;
60588;SDS011;46421;48.610;9.334;2023-09-12T14:31:44;6.55;;;4.82;;
60588;SDS011;46421;48.610;9.334;2023-09-12T14:34:15;8.38;;;5.10;;
60588;SDS011;46421;48.610;9.334;2023-09-12T14:39:05;6.95;;;4.38;;
60588;SDS011;46421;48.610;9.334;2023-09-12T14:43:56;6.82;;;4.75;;
60588;SDS011;46421;48.610;9.334;2023-09-12T14:46:21;9.83;;;4.67;;
60588;SDS011;46421;48.610;9.334;2023-09-12T14:48:48;7.83;;;4.77;;
60588;SDS011;46421;48.610;9.334;2023-09-12T14:51:13;7.95;;;4.68;;
60588;SDS011;46421;48.610;9.334;2023-09-12T14:53:38;7.00;;;4.60;;
60588;SDS011;46421;48.610;9.334;2023-09-12T14:56:09;7.78;;;4.70;;
60588;SDS011;46421;48.610;9.334;2023-09-12T14:58:34;6.57;;;4.67;;
60588;SDS011;46421;48.610;9.334;2023-09-12T15:00:59;7.87;;;4.40;;
60588;SDS011;46421;48.610;9.334;2023-09-12T15:03:24;6.93;;;4.60;;
60588;SDS011;46421;48.610;9.334;2023-09-12T15:05:49;7.63;;;5.03;;
60588;SDS011;46421;48.610;9.334;2023-09-12T15:08:15;7.00;;;4.70;;
60588;SDS011;46421;48.610;9.334;2023-09-12T15:10:40;9.30;;;5.20;;
60588;SDS011;46421;48.610;9.334;2023-09-12T15:13:05;6.80;;;4.73;;